sensor_id;sensor_type;location;lat;lon;timestamp;P1;durP1;ratioP1;P2;durP2;ratioP2
18376;SDS011;9315;52.624;13.544;2023-03-21T00:00:42;13.67;;;7.70;;
18376;SDS011;9315;52.624;13.544;2023-03-21T00:03:09;14.97;;;7.87;;
18376;SDS011;9315;52.624;13.544;2023-03-21T00:05:40;14.03;;;8.00;;
18376;SDS011;9315;52.624;13.544;2023-03-21T00:08:14;11.37;;;7.90;;
18376;SDS011;9315;52.624;13.544;2023-03-21T00:10:41;15.37;;;8.10;;
18376;SDS011;9315;52.624;13.544;2023-03-21T00:13:10;11.37;;;7.30;;
18376;SDS011;9315;52.624;13.544;2023-03-21T00:15:40;12.17;;;7.07;;
18376;SDS011;9315;52.624;13.544;2023-03-21T00:18:40;13.90;;;7.53;;
18376;SDS011;9315;52.624;13.544;2023-03-21T00:21:18;13.87;;;7.03;;
18376;SDS011;9315;52.624;13.544;2023-03-21T00:24:07;11.60;;;7.20;;
18376;SDS011;9315;52.624;13.544;2023-03-21T00:26:34;10.97;;;7.20;;
18376;SDS011;9315;52.624;13.544;2023-03-21T00:29:03;10.90;;;6.87;;
18376;SDS011;9315;52.624;13.544;2023-03-21T00:31:30;13.43;;;7.63;;
18376;SDS011;9315;52.624;13.544;2023-03-21T00:33:57;13.53;;;7.23;;
18376;SDS011;9315;52.624;13.544;2023-03-21T00:36:26;13.20;;;7.40;;
18376;SDS011;9315;52.624;13.544;2023-03-21T00:38:53;9.60;;;6.60;;
18376;SDS011;9315;52.624;13.544;2023-03-21T00:41:20;8.70;;;6.47;;
18376;SDS011;9315;52.624;13.544;2023-03-21T00:44:06;13.53;;;7.00;;
18376;SDS011;9315;52.624;13.544;2023-03-21T00:46:33;12.03;;;6.57;;
18376;SDS011;9315;52.624;13.544;2023-03-21T00:49:16;10.90;;;6.50;;
18376;SDS011;9315;52.624;13.544;2023-03-21T00:51:46;14.03;;;6.17;;
18376;SDS011;9315;52.624;13.544;2023-03-21T00:54:17;11.63;;;6.77;;
18376;SDS011;9315;52.624;13.544;2023-03-21T00:56:44;13.70;;;6.80;;
18376;SDS011;9315;52.624;13.544;2023-03-21T00:59:11;12.83;;;6.33;;
18376;SDS011;9315;52.624;13.544;2023-03-21T01:01:39;12.20;;;6.73;;
18376;SDS011;9315;52.624;13.544;2023-03-21T01:04:06;14.70;;;7.20;;
18376;SDS011;9315;52.624;13.544;2023-03-21T01:06:39;12.40;;;6.50;;
18376;SDS011;9315;52.624;13.544;2023-03-21T01:11:44;15.63;;;7.07;;
18376;SDS011;9315;52.624;13.544;2023-03-21T01:14:12;13.00;;;7.03;;
18376;SDS011;9315;52.624;13.544;2023-03-21T01:16:50;13.27;;;6.77;;
18376;SDS011;9315;52.624;13.544;2023-03-21T01:19:19;14.80;;;6.47;;
18376;SDS011;9315;52.624;13.544;2023-03-21T01:22:09;10.97;;;7.17;;
18376;SDS011;9315;52.624;13.544;2023-03-21T01:24:37;13.07;;;6.77;;
18376;SDS011;9315;52.624;13.544;2023-03-21T01:27:17;11.43;;;6.60;;
18376;SDS011;9315;52.624;13.544;2023-03-21T01:29:45;15.10;;;7.13;;
18376;SDS011;9315;52.624;13.544;2023-03-21T01:32:12;12.80;;;7.20;;
18376;SDS011;9315;52.624;13.544;2023-03-21T01:34:39;10.90;;;7.13;;
18376;SDS011;9315;52.624;13.544;2023-03-21T01:37:06;15.63;;;7.53;;
18376;SDS011;9315;52.624;13.544;2023-03-21T01:39:33;16.77;;;7.97;;
18376;SDS011;9315;52.624;13.544;2023-03-21T01:42:01;15.63;;;7.17;;
18376;SDS011;9315;52.624;13.544;2023-03-21T01:44:28;13.30;;;7.60;;
18376;SDS011;9315;52.624;13.544;2023-03-21T01:46:55;13.67;;;7.10;;
18376;SDS011;9315;52.624;13.544;2023-03-21T01:49:39;14.77;;;8.60;;
18376;SDS011;9315;52.624;13.544;2023-03-21T01:52:12;14.97;;;7.57;;
18376;SDS011;9315;52.624;13.544;2023-03-21T01:55:04;16.57;;;7.60;;
18376;SDS011;9315;52.624;13.544;2023-03-21T01:57:39;13.97;;;7.80;;
18376;SDS011;9315;52.624;13.544;2023-03-21T02:00:30;15.43;;;7.37;;
18376;SDS011;9315;52.624;13.544;2023-03-21T02:02:58;14.00;;;7.33;;
18376;SDS011;9315;52.624;13.544;2023-03-21T02:08:30;14.73;;;8.63;;
18376;SDS011;9315;52.624;13.544;2023-03-21T02:11:05;13.00;;;8.90;;
18376;SDS011;9315;52.624;13.544;2023-03-21T02:13:37;19.80;;;10.97;;
18376;SDS011;9315;52.624;13.544;2023-03-21T02:35:53;23.80;;;12.67;;
18376;SDS011;9315;52.624;13.544;2023-03-21T02:41:27;20.20;;;11.90;;
18376;SDS011;9315;52.624;13.544;2023-03-21T02:44:21;20.33;;;11.27;;
18376;SDS011;9315;52.624;13.544;2023-03-21T02:52:55;18.63;;;12.53;;
18376;SDS011;9315;52.624;13.544;2023-03-21T02:55:24;19.07;;;13.10;;
18376;SDS011;9315;52.624;13.544;2023-03-21T02:57:56;28.43;;;13.97;;
18376;SDS011;9315;52.624;13.544;2023-03-21T03:00:37;20.90;;;13.60;;
18376;SDS011;9315;52.624;13.544;2023-03-21T03:03:05;20.57;;;12.70;;
18376;SDS011;9315;52.624;13.544;2023-03-21T03:05:42;25.43;;;13.30;;
18376;SDS011;9315;52.624;13.544;2023-03-21T03:11:30;23.17;;;15.10;;
18376;SDS011;9315;52.624;13.544;2023-03-21T03:23:22;23.77;;;16.50;;
18376;SDS011;9315;52.624;13.544;2023-03-21T03:26:08;28.90;;;16.47;;
18376;SDS011;9315;52.624;13.544;2023-03-21T03:29:13;33.73;;;18.43;;
18376;SDS011;9315;52.624;13.544;2023-03-21T03:31:56;29.57;;;18.90;;
18376;SDS011;9315;52.624;13.544;2023-03-21T03:34:35;33.90;;;19.63;;
18376;SDS011;9315;52.624;13.544;2023-03-21T03:37:10;31.13;;;19.80;;
18376;SDS011;9315;52.624;13.544;2023-03-21T03:39:44;30.30;;;20.57;;
18376;SDS011;9315;52.624;13.544;2023-03-21T03:42:23;35.90;;;22.20;;
18376;SDS011;9315;52.624;13.544;2023-03-21T03:44:59;30.07;;;21.40;;
18376;SDS011;9315;52.624;13.544;2023-03-21T03:47:38;34.40;;;21.83;;
18376;SDS011;9315;52.624;13.544;2023-03-21T03:50:41;34.77;;;23.60;;
18376;SDS011;9315;52.624;13.544;2023-03-21T03:53:23;36.70;;;24.03;;
18376;SDS011;9315;52.624;13.544;2023-03-21T03:56:02;35.23;;;23.90;;
18376;SDS011;9315;52.624;13.544;2023-03-21T03:58:33;35.97;;;24.07;;
18376;SDS011;9315;52.624;13.544;2023-03-21T04:01:11;39.70;;;25.67;;
18376;SDS011;9315;52.624;13.544;2023-03-21T04:03:40;39.10;;;26.00;;
18376;SDS011;9315;52.624;13.544;2023-03-21T04:06:17;38.20;;;26.03;;
18376;SDS011;9315;52.624;13.544;2023-03-21T04:08:47;38.13;;;25.63;;
18376;SDS011;9315;52.624;13.544;2023-03-21T04:11:16;41.17;;;25.80;;
18376;SDS011;9315;52.624;13.544;2023-03-21T04:13:43;41.47;;;26.53;;
18376;SDS011;9315;52.624;13.544;2023-03-21T04:16:10;40.43;;;25.97;;
18376;SDS011;9315;52.624;13.544;2023-03-21T04:18:38;40.17;;;26.33;;
18376;SDS011;9315;52.624;13.544;2023-03-21T04:21:10;38.73;;;25.60;;
18376;SDS011;9315;52.624;13.544;2023-03-21T04:23:39;37.43;;;26.23;;
18376;SDS011;9315;52.624;13.544;2023-03-21T04:26:08;40.13;;;24.67;;
18376;SDS011;9315;52.624;13.544;2023-03-21T04:28:36;45.63;;;27.20;;
18376;SDS011;9315;52.624;13.544;2023-03-21T04:31:05;40.07;;;26.17;;
18376;SDS011;9315;52.624;13.544;2023-03-21T04:33:49;41.90;;;26.67;;
18376;SDS011;9315;52.624;13.544;2023-03-21T04:36:17;43.70;;;28.07;;
18376;SDS011;9315;52.624;13.544;2023-03-21T04:38:52;43.40;;;27.47;;
18376;SDS011;9315;52.624;13.544;2023-03-21T04:41:22;48.77;;;26.93;;
18376;SDS011;9315;52.624;13.544;2023-03-21T04:43:51;47.33;;;28.20;;
18376;SDS011;9315;52.624;13.544;2023-03-21T04:46:19;40.27;;;27.07;;
18376;SDS011;9315;52.624;13.544;2023-03-21T04:48:47;51.23;;;27.70;;
18376;SDS011;9315;52.624;13.544;2023-03-21T04:51:15;45.83;;;28.73;;
18376;SDS011;9315;52.624;13.544;2023-03-21T04:53:42;45.13;;;29.47;;
18376;SDS011;9315;52.624;13.544;2023-03-21T04:56:11;48.77;;;29.33;;
18376;SDS011;9315;52.624;13.544;2023-03-21T04:58:38;51.50;;;30.27;;
18376;SDS011;9315;52.624;13.544;2023-03-21T05:01:08;55.17;;;29.47;;
18376;SDS011;9315;52.624;13.544;2023-03-21T05:03:35;48.67;;;29.23;;
18376;SDS011;9315;52.624;13.544;2023-03-21T05:06:06;49.57;;;29.77;;
18376;SDS011;9315;52.624;13.544;2023-03-21T05:08:35;46.80;;;27.30;;
18376;SDS011;9315;52.624;13.544;2023-03-21T05:11:06;50.50;;;30.57;;
18376;SDS011;9315;52.624;13.544;2023-03-21T05:13:34;49.73;;;29.87;;
18376;SDS011;9315;52.624;13.544;2023-03-21T05:16:01;51.20;;;31.10;;
18376;SDS011;9315;52.624;13.544;2023-03-21T05:18:28;54.30;;;28.80;;
18376;SDS011;9315;52.624;13.544;2023-03-21T05:21:00;48.30;;;30.10;;
18376;SDS011;9315;52.624;13.544;2023-03-21T05:23:29;47.00;;;29.63;;
18376;SDS011;9315;52.624;13.544;2023-03-21T05:25:56;50.77;;;29.40;;
18376;SDS011;9315;52.624;13.544;2023-03-21T05:28:23;50.50;;;31.33;;
18376;SDS011;9315;52.624;13.544;2023-03-21T05:30:56;45.03;;;28.83;;
18376;SDS011;9315;52.624;13.544;2023-03-21T05:33:23;48.23;;;29.33;;
18376;SDS011;9315;52.624;13.544;2023-03-21T05:35:51;51.80;;;30.47;;
18376;SDS011;9315;52.624;13.544;2023-03-21T05:38:21;55.43;;;29.87;;
18376;SDS011;9315;52.624;13.544;2023-03-21T05:40:52;50.13;;;29.60;;
18376;SDS011;9315;52.624;13.544;2023-03-21T05:43:20;48.13;;;27.53;;
18376;SDS011;9315;52.624;13.544;2023-03-21T05:45:47;49.17;;;28.10;;
18376;SDS011;9315;52.624;13.544;2023-03-21T05:48:15;53.20;;;29.03;;
18376;SDS011;9315;52.624;13.544;2023-03-21T05:50:43;48.43;;;27.40;;
18376;SDS011;9315;52.624;13.544;2023-03-21T05:53:11;48.47;;;28.07;;
18376;SDS011;9315;52.624;13.544;2023-03-21T05:55:38;47.37;;;26.50;;
18376;SDS011;9315;52.624;13.544;2023-03-21T05:58:05;49.07;;;26.80;;
18376;SDS011;9315;52.624;13.544;2023-03-21T06:00:34;52.23;;;27.00;;
18376;SDS011;9315;52.624;13.544;2023-03-21T06:03:01;46.03;;;26.03;;
18376;SDS011;9315;52.624;13.544;2023-03-21T06:05:30;42.90;;;25.47;;
18376;SDS011;9315;52.624;13.544;2023-03-21T06:07:59;52.70;;;27.80;;
18376;SDS011;9315;52.624;13.544;2023-03-21T06:10:29;56.23;;;26.83;;
18376;SDS011;9315;52.624;13.544;2023-03-21T06:12:56;53.83;;;27.40;;
18376;SDS011;9315;52.624;13.544;2023-03-21T06:15:25;50.97;;;26.00;;
18376;SDS011;9315;52.624;13.544;2023-03-21T06:17:52;53.33;;;27.17;;
18376;SDS011;9315;52.624;13.544;2023-03-21T06:20:19;55.43;;;27.97;;
18376;SDS011;9315;52.624;13.544;2023-03-21T06:22:46;49.00;;;25.73;;
18376;SDS011;9315;52.624;13.544;2023-03-21T06:25:14;51.57;;;27.70;;
18376;SDS011;9315;52.624;13.544;2023-03-21T06:27:42;45.47;;;25.37;;
18376;SDS011;9315;52.624;13.544;2023-03-21T06:30:10;46.60;;;26.27;;
18376;SDS011;9315;52.624;13.544;2023-03-21T06:32:38;49.30;;;27.27;;
18376;SDS011;9315;52.624;13.544;2023-03-21T06:35:07;47.57;;;26.27;;
18376;SDS011;9315;52.624;13.544;2023-03-21T06:37:34;46.87;;;26.77;;
18376;SDS011;9315;52.624;13.544;2023-03-21T06:40:02;43.60;;;26.53;;
18376;SDS011;9315;52.624;13.544;2023-03-21T06:42:33;54.30;;;29.37;;
18376;SDS011;9315;52.624;13.544;2023-03-21T06:45:00;55.43;;;28.50;;
18376;SDS011;9315;52.624;13.544;2023-03-21T06:47:31;49.50;;;26.93;;
18376;SDS011;9315;52.624;13.544;2023-03-21T06:49:59;48.53;;;27.47;;
18376;SDS011;9315;52.624;13.544;2023-03-21T06:52:26;51.80;;;28.97;;
18376;SDS011;9315;52.624;13.544;2023-03-21T06:54:53;53.50;;;28.57;;
18376;SDS011;9315;52.624;13.544;2023-03-21T06:57:20;50.53;;;27.17;;
18376;SDS011;9315;52.624;13.544;2023-03-21T06:59:47;51.63;;;27.30;;
18376;SDS011;9315;52.624;13.544;2023-03-21T07:02:14;52.60;;;27.23;;
18376;SDS011;9315;52.624;13.544;2023-03-21T07:04:41;51.77;;;28.10;;
18376;SDS011;9315;52.624;13.544;2023-03-21T07:07:09;51.00;;;29.03;;
18376;SDS011;9315;52.624;13.544;2023-03-21T07:09:36;56.57;;;27.87;;
18376;SDS011;9315;52.624;13.544;2023-03-21T07:12:05;49.90;;;27.60;;
18376;SDS011;9315;52.624;13.544;2023-03-21T07:14:32;49.63;;;27.60;;
18376;SDS011;9315;52.624;13.544;2023-03-21T07:17:02;48.73;;;28.00;;
18376;SDS011;9315;52.624;13.544;2023-03-21T07:19:29;49.60;;;29.07;;
18376;SDS011;9315;52.624;13.544;2023-03-21T07:21:57;50.83;;;28.53;;
18376;SDS011;9315;52.624;13.544;2023-03-21T07:24:26;50.87;;;27.47;;
18376;SDS011;9315;52.624;13.544;2023-03-21T07:26:53;51.07;;;28.67;;
18376;SDS011;9315;52.624;13.544;2023-03-21T07:29:21;51.20;;;29.10;;
18376;SDS011;9315;52.624;13.544;2023-03-21T07:31:48;46.53;;;26.20;;
18376;SDS011;9315;52.624;13.544;2023-03-21T07:34:15;51.07;;;27.00;;
18376;SDS011;9315;52.624;13.544;2023-03-21T07:36:43;55.53;;;29.10;;
18376;SDS011;9315;52.624;13.544;2023-03-21T07:39:13;52.63;;;29.37;;
18376;SDS011;9315;52.624;13.544;2023-03-21T07:41:42;53.17;;;28.40;;
18376;SDS011;9315;52.624;13.544;2023-03-21T07:44:09;58.80;;;29.13;;
18376;SDS011;9315;52.624;13.544;2023-03-21T07:46:37;59.67;;;29.03;;
18376;SDS011;9315;52.624;13.544;2023-03-21T07:49:06;57.07;;;30.80;;
18376;SDS011;9315;52.624;13.544;2023-03-21T07:51:34;51.87;;;28.93;;
18376;SDS011;9315;52.624;13.544;2023-03-21T07:54:02;56.50;;;29.53;;
18376;SDS011;9315;52.624;13.544;2023-03-21T07:56:29;59.77;;;29.47;;
18376;SDS011;9315;52.624;13.544;2023-03-21T07:58:57;55.10;;;29.73;;
18376;SDS011;9315;52.624;13.544;2023-03-21T08:01:24;54.80;;;27.80;;
18376;SDS011;9315;52.624;13.544;2023-03-21T08:03:52;56.80;;;31.00;;
18376;SDS011;9315;52.624;13.544;2023-03-21T08:06:19;65.77;;;29.77;;
18376;SDS011;9315;52.624;13.544;2023-03-21T08:08:46;58.83;;;29.50;;
18376;SDS011;9315;52.624;13.544;2023-03-21T08:11:14;66.37;;;29.00;;
18376;SDS011;9315;52.624;13.544;2023-03-21T08:13:41;61.33;;;29.07;;
18376;SDS011;9315;52.624;13.544;2023-03-21T08:16:08;55.00;;;28.87;;
18376;SDS011;9315;52.624;13.544;2023-03-21T08:18:35;52.37;;;29.50;;
18376;SDS011;9315;52.624;13.544;2023-03-21T08:21:02;52.07;;;28.70;;
18376;SDS011;9315;52.624;13.544;2023-03-21T08:23:30;53.90;;;29.87;;
18376;SDS011;9315;52.624;13.544;2023-03-21T08:25:57;51.97;;;29.00;;
18376;SDS011;9315;52.624;13.544;2023-03-21T08:28:24;54.33;;;29.10;;
18376;SDS011;9315;52.624;13.544;2023-03-21T08:30:52;55.30;;;29.73;;
18376;SDS011;9315;52.624;13.544;2023-03-21T08:33:21;50.20;;;28.70;;
18376;SDS011;9315;52.624;13.544;2023-03-21T08:35:49;56.60;;;28.67;;
18376;SDS011;9315;52.624;13.544;2023-03-21T08:38:16;55.93;;;29.53;;
18376;SDS011;9315;52.624;13.544;2023-03-21T08:40:43;49.10;;;27.27;;
18376;SDS011;9315;52.624;13.544;2023-03-21T08:43:10;52.30;;;28.73;;
18376;SDS011;9315;52.624;13.544;2023-03-21T08:45:40;53.00;;;29.10;;
18376;SDS011;9315;52.624;13.544;2023-03-21T08:48:07;53.27;;;27.40;;
18376;SDS011;9315;52.624;13.544;2023-03-21T08:50:34;50.63;;;28.37;;
18376;SDS011;9315;52.624;13.544;2023-03-21T08:53:01;52.00;;;28.53;;
18376;SDS011;9315;52.624;13.544;2023-03-21T08:55:28;52.97;;;28.67;;
18376;SDS011;9315;52.624;13.544;2023-03-21T08:57:58;47.03;;;27.33;;
18376;SDS011;9315;52.624;13.544;2023-03-21T09:00:26;49.60;;;28.33;;
18376;SDS011;9315;52.624;13.544;2023-03-21T09:02:54;53.63;;;28.70;;
18376;SDS011;9315;52.624;13.544;2023-03-21T09:05:24;54.93;;;29.50;;
18376;SDS011;9315;52.624;13.544;2023-03-21T09:07:52;53.37;;;29.30;;
18376;SDS011;9315;52.624;13.544;2023-03-21T09:10:21;50.47;;;28.63;;
18376;SDS011;9315;52.624;13.544;2023-03-21T09:12:49;47.03;;;26.10;;
18376;SDS011;9315;52.624;13.544;2023-03-21T09:15:21;43.70;;;26.27;;
18376;SDS011;9315;52.624;13.544;2023-03-21T09:17:54;46.20;;;25.83;;
18376;SDS011;9315;52.624;13.544;2023-03-21T09:20:24;45.00;;;26.07;;
18376;SDS011;9315;52.624;13.544;2023-03-21T09:22:56;47.90;;;26.27;;
18376;SDS011;9315;52.624;13.544;2023-03-21T09:25:24;46.23;;;26.63;;
18376;SDS011;9315;52.624;13.544;2023-03-21T09:27:57;46.00;;;26.90;;
18376;SDS011;9315;52.624;13.544;2023-03-21T09:30:26;47.23;;;27.53;;
18376;SDS011;9315;52.624;13.544;2023-03-21T09:32:54;43.43;;;25.60;;
18376;SDS011;9315;52.624;13.544;2023-03-21T09:35:22;45.30;;;27.20;;
18376;SDS011;9315;52.624;13.544;2023-03-21T09:37:50;46.23;;;26.13;;
18376;SDS011;9315;52.624;13.544;2023-03-21T09:40:52;46.17;;;25.07;;
18376;SDS011;9315;52.624;13.544;2023-03-21T09:43:44;42.33;;;25.53;;
18376;SDS011;9315;52.624;13.544;2023-03-21T09:46:44;40.27;;;24.40;;
18376;SDS011;9315;52.624;13.544;2023-03-21T09:49:30;40.83;;;24.03;;
18376;SDS011;9315;52.624;13.544;2023-03-21T09:54:54;38.30;;;22.93;;
18376;SDS011;9315;52.624;13.544;2023-03-21T09:57:35;35.13;;;22.17;;
18376;SDS011;9315;52.624;13.544;2023-03-21T10:00:14;37.57;;;21.00;;
18376;SDS011;9315;52.624;13.544;2023-03-21T10:02:53;33.60;;;20.20;;
18376;SDS011;9315;52.624;13.544;2023-03-21T10:05:26;34.10;;;20.97;;
18376;SDS011;9315;52.624;13.544;2023-03-21T10:08:15;32.00;;;19.00;;
18376;SDS011;9315;52.624;13.544;2023-03-21T10:10:50;31.53;;;19.43;;
18376;SDS011;9315;52.624;13.544;2023-03-21T10:13:54;32.97;;;18.80;;
18376;SDS011;9315;52.624;13.544;2023-03-21T10:16:40;37.17;;;19.87;;
18376;SDS011;9315;52.624;13.544;2023-03-21T10:19:18;31.87;;;17.93;;
18376;SDS011;9315;52.624;13.544;2023-03-21T10:21:47;31.73;;;18.80;;
18376;SDS011;9315;52.624;13.544;2023-03-21T10:24:28;27.23;;;17.30;;
18376;SDS011;9315;52.624;13.544;2023-03-21T10:27:00;31.43;;;18.07;;
18376;SDS011;9315;52.624;13.544;2023-03-21T10:29:31;30.80;;;18.57;;
18376;SDS011;9315;52.624;13.544;2023-03-21T10:32:11;32.33;;;19.23;;
18376;SDS011;9315;52.624;13.544;2023-03-21T10:34:48;34.67;;;19.57;;
18376;SDS011;9315;52.624;13.544;2023-03-21T10:37:21;33.57;;;19.23;;
18376;SDS011;9315;52.624;13.544;2023-03-21T10:39:50;30.93;;;18.77;;
18376;SDS011;9315;52.624;13.544;2023-03-21T10:42:24;34.17;;;19.67;;
18376;SDS011;9315;52.624;13.544;2023-03-21T10:44:56;33.03;;;19.40;;
18376;SDS011;9315;52.624;13.544;2023-03-21T10:47:25;37.63;;;20.53;;
18376;SDS011;9315;52.624;13.544;2023-03-21T10:50:05;35.70;;;20.60;;
18376;SDS011;9315;52.624;13.544;2023-03-21T10:52:49;33.97;;;19.40;;
18376;SDS011;9315;52.624;13.544;2023-03-21T10:55:26;34.27;;;19.73;;
18376;SDS011;9315;52.624;13.544;2023-03-21T10:58:01;31.80;;;17.57;;
18376;SDS011;9315;52.624;13.544;2023-03-21T11:00:36;33.27;;;17.97;;
18376;SDS011;9315;52.624;13.544;2023-03-21T11:03:21;33.93;;;19.10;;
18376;SDS011;9315;52.624;13.544;2023-03-21T11:05:54;34.33;;;19.77;;
18376;SDS011;9315;52.624;13.544;2023-03-21T11:08:38;34.97;;;19.37;;
18376;SDS011;9315;52.624;13.544;2023-03-21T11:11:21;32.47;;;19.40;;
18376;SDS011;9315;52.624;13.544;2023-03-21T11:13:55;34.43;;;20.07;;
18376;SDS011;9315;52.624;13.544;2023-03-21T11:19:14;41.70;;;20.43;;
18376;SDS011;9315;52.624;13.544;2023-03-21T11:21:45;35.47;;;19.10;;
18376;SDS011;9315;52.624;13.544;2023-03-21T11:24:16;35.47;;;21.33;;
18376;SDS011;9315;52.624;13.544;2023-03-21T11:26:45;34.57;;;20.43;;
18376;SDS011;9315;52.624;13.544;2023-03-21T11:29:22;34.63;;;20.90;;
18376;SDS011;9315;52.624;13.544;2023-03-21T11:32:11;33.63;;;20.20;;
18376;SDS011;9315;52.624;13.544;2023-03-21T11:35:12;37.70;;;21.30;;
18376;SDS011;9315;52.624;13.544;2023-03-21T11:37:54;40.70;;;22.33;;
18376;SDS011;9315;52.624;13.544;2023-03-21T11:43:39;40.53;;;24.07;;
18376;SDS011;9315;52.624;13.544;2023-03-21T11:46:04;39.57;;;22.83;;
18376;SDS011;9315;52.624;13.544;2023-03-21T11:54:35;31.77;;;20.83;;
18376;SDS011;9315;52.624;13.544;2023-03-21T12:00:51;32.07;;;20.00;;
18376;SDS011;9315;52.624;13.544;2023-03-21T12:04:02;32.57;;;19.33;;
18376;SDS011;9315;52.624;13.544;2023-03-21T12:13:17;30.30;;;17.30;;
18376;SDS011;9315;52.624;13.544;2023-03-21T12:16:17;29.47;;;18.03;;
18376;SDS011;9315;52.624;13.544;2023-03-21T12:22:37;29.20;;;17.60;;
18376;SDS011;9315;52.624;13.544;2023-03-21T12:25:32;24.53;;;15.33;;
18376;SDS011;9315;52.624;13.544;2023-03-21T12:28:59;23.33;;;15.63;;
18376;SDS011;9315;52.624;13.544;2023-03-21T12:40:58;23.17;;;16.37;;
18376;SDS011;9315;52.624;13.544;2023-03-21T12:46:42;22.87;;;15.40;;
18376;SDS011;9315;52.624;13.544;2023-03-21T12:49:34;22.57;;;14.50;;
18376;SDS011;9315;52.624;13.544;2023-03-21T12:52:24;37.07;;;15.97;;
18376;SDS011;9315;52.624;13.544;2023-03-21T12:55:13;26.37;;;15.83;;
18376;SDS011;9315;52.624;13.544;2023-03-21T12:58:03;32.97;;;16.67;;
18376;SDS011;9315;52.624;13.544;2023-03-21T13:00:47;37.80;;;17.87;;
18376;SDS011;9315;52.624;13.544;2023-03-21T13:03:40;24.73;;;16.10;;
18376;SDS011;9315;52.624;13.544;2023-03-21T13:06:32;24.00;;;16.37;;
18376;SDS011;9315;52.624;13.544;2023-03-21T13:09:05;24.33;;;16.13;;
18376;SDS011;9315;52.624;13.544;2023-03-21T13:11:53;24.53;;;15.20;;
18376;SDS011;9315;52.624;13.544;2023-03-21T13:14:34;23.00;;;15.60;;
18376;SDS011;9315;52.624;13.544;2023-03-21T13:17:23;23.80;;;15.20;;
18376;SDS011;9315;52.624;13.544;2023-03-21T13:20:12;23.97;;;14.63;;
18376;SDS011;9315;52.624;13.544;2023-03-21T13:23:17;27.73;;;15.37;;
18376;SDS011;9315;52.624;13.544;2023-03-21T13:25:49;23.23;;;15.93;;
18376;SDS011;9315;52.624;13.544;2023-03-21T13:28:21;28.03;;;15.63;;
18376;SDS011;9315;52.624;13.544;2023-03-21T13:31:13;22.73;;;15.10;;
18376;SDS011;9315;52.624;13.544;2023-03-21T13:33:47;28.83;;;15.80;;
18376;SDS011;9315;52.624;13.544;2023-03-21T13:36:28;24.70;;;15.50;;
18376;SDS011;9315;52.624;13.544;2023-03-21T13:39:00;29.97;;;15.70;;
18376;SDS011;9315;52.624;13.544;2023-03-21T13:41:33;24.43;;;15.73;;
18376;SDS011;9315;52.624;13.544;2023-03-21T13:46:55;26.20;;;16.87;;
18376;SDS011;9315;52.624;13.544;2023-03-21T13:49:35;24.93;;;15.73;;
18376;SDS011;9315;52.624;13.544;2023-03-21T14:00:13;27.43;;;18.37;;
18376;SDS011;9315;52.624;13.544;2023-03-21T14:02:59;24.23;;;16.63;;
18376;SDS011;9315;52.624;13.544;2023-03-21T14:05:38;26.00;;;17.07;;
18376;SDS011;9315;52.624;13.544;2023-03-21T14:08:07;26.90;;;17.40;;
18376;SDS011;9315;52.624;13.544;2023-03-21T14:10:57;23.87;;;15.93;;
18376;SDS011;9315;52.624;13.544;2023-03-21T14:13:29;28.57;;;17.53;;
18376;SDS011;9315;52.624;13.544;2023-03-21T14:16:08;34.63;;;17.63;;
18376;SDS011;9315;52.624;13.544;2023-03-21T14:18:44;26.53;;;16.73;;
18376;SDS011;9315;52.624;13.544;2023-03-21T14:21:37;27.77;;;16.97;;
18376;SDS011;9315;52.624;13.544;2023-03-21T14:24:17;27.60;;;16.10;;
18376;SDS011;9315;52.624;13.544;2023-03-21T14:26:47;23.13;;;15.77;;
18376;SDS011;9315;52.624;13.544;2023-03-21T14:29:21;20.93;;;15.80;;
18376;SDS011;9315;52.624;13.544;2023-03-21T14:31:57;20.93;;;14.80;;
18376;SDS011;9315;52.624;13.544;2023-03-21T14:34:26;25.23;;;16.03;;
18376;SDS011;9315;52.624;13.544;2023-03-21T14:36:58;36.63;;;15.67;;
18376;SDS011;9315;52.624;13.544;2023-03-21T14:39:27;24.73;;;14.93;;
18376;SDS011;9315;52.624;13.544;2023-03-21T14:42:06;22.40;;;14.87;;
18376;SDS011;9315;52.624;13.544;2023-03-21T14:44:39;20.77;;;13.67;;
18376;SDS011;9315;52.624;13.544;2023-03-21T14:49:57;18.23;;;11.77;;
18376;SDS011;9315;52.624;13.544;2023-03-21T14:52:31;16.60;;;12.10;;
18376;SDS011;9315;52.624;13.544;2023-03-21T14:55:00;22.10;;;12.80;;
18376;SDS011;9315;52.624;13.544;2023-03-21T14:57:38;19.80;;;12.70;;
18376;SDS011;9315;52.624;13.544;2023-03-21T15:00:06;23.93;;;12.73;;
18376;SDS011;9315;52.624;13.544;2023-03-21T15:02:45;17.13;;;11.87;;
18376;SDS011;9315;52.624;13.544;2023-03-21T15:08:06;21.57;;;12.27;;
18376;SDS011;9315;52.624;13.544;2023-03-21T15:11:02;22.60;;;12.50;;
18376;SDS011;9315;52.624;13.544;2023-03-21T15:16:20;19.90;;;11.83;;
18376;SDS011;9315;52.624;13.544;2023-03-21T15:18:48;23.03;;;11.73;;
18376;SDS011;9315;52.624;13.544;2023-03-21T15:21:24;15.20;;;10.33;;
18376;SDS011;9315;52.624;13.544;2023-03-21T15:26:44;18.30;;;10.30;;
18376;SDS011;9315;52.624;13.544;2023-03-21T15:29:14;14.90;;;10.13;;
18376;SDS011;9315;52.624;13.544;2023-03-21T15:31:45;22.70;;;10.17;;
18376;SDS011;9315;52.624;13.544;2023-03-21T15:34:17;15.73;;;10.37;;
18376;SDS011;9315;52.624;13.544;2023-03-21T15:37:06;17.40;;;9.67;;
18376;SDS011;9315;52.624;13.544;2023-03-21T15:39:42;19.70;;;10.87;;
18376;SDS011;9315;52.624;13.544;2023-03-21T15:45:13;14.90;;;9.30;;
18376;SDS011;9315;52.624;13.544;2023-03-21T15:47:53;16.20;;;9.20;;
18376;SDS011;9315;52.624;13.544;2023-03-21T15:50:40;15.73;;;9.10;;
18376;SDS011;9315;52.624;13.544;2023-03-21T15:53:17;14.43;;;8.97;;
18376;SDS011;9315;52.624;13.544;2023-03-21T15:55:46;17.43;;;9.20;;
18376;SDS011;9315;52.624;13.544;2023-03-21T15:58:35;17.80;;;8.97;;
18376;SDS011;9315;52.624;13.544;2023-03-21T16:01:11;14.37;;;8.80;;
18376;SDS011;9315;52.624;13.544;2023-03-21T16:03:48;14.57;;;8.63;;
18376;SDS011;9315;52.624;13.544;2023-03-21T16:06:34;15.53;;;8.80;;
18376;SDS011;9315;52.624;13.544;2023-03-21T16:09:25;18.53;;;8.40;;
18376;SDS011;9315;52.624;13.544;2023-03-21T16:12:07;14.57;;;8.20;;
18376;SDS011;9315;52.624;13.544;2023-03-21T16:14:39;14.90;;;8.27;;
18376;SDS011;9315;52.624;13.544;2023-03-21T16:17:16;12.27;;;8.30;;
18376;SDS011;9315;52.624;13.544;2023-03-21T16:19:58;15.50;;;8.37;;
18376;SDS011;9315;52.624;13.544;2023-03-21T16:22:26;13.70;;;7.93;;
18376;SDS011;9315;52.624;13.544;2023-03-21T16:24:55;15.93;;;8.20;;
18376;SDS011;9315;52.624;13.544;2023-03-21T16:27:22;13.60;;;8.30;;
18376;SDS011;9315;52.624;13.544;2023-03-21T16:29:49;13.57;;;8.20;;
18376;SDS011;9315;52.624;13.544;2023-03-21T16:32:16;13.73;;;8.53;;
18376;SDS011;9315;52.624;13.544;2023-03-21T16:34:45;13.13;;;8.13;;
18376;SDS011;9315;52.624;13.544;2023-03-21T16:37:13;12.27;;;7.93;;
18376;SDS011;9315;52.624;13.544;2023-03-21T16:39:44;15.83;;;7.97;;
18376;SDS011;9315;52.624;13.544;2023-03-21T16:42:12;16.17;;;8.10;;
18376;SDS011;9315;52.624;13.544;2023-03-21T16:44:39;13.70;;;8.40;;
18376;SDS011;9315;52.624;13.544;2023-03-21T16:47:19;13.50;;;8.47;;
18376;SDS011;9315;52.624;13.544;2023-03-21T16:49:50;15.63;;;8.90;;
18376;SDS011;9315;52.624;13.544;2023-03-21T16:52:17;15.97;;;7.97;;
18376;SDS011;9315;52.624;13.544;2023-03-21T16:54:44;13.40;;;8.37;;